createdAt,value
2023-03-12T00:01:22.456Z,0.87
2023-03-12T00:03:50.526Z,1.07
2023-03-12T00:06:18.642Z,1.10
2023-03-12T00:08:45.855Z,1.00
2023-03-12T00:11:14.396Z,0.70
2023-03-12T00:13:43.265Z,0.80
2023-03-12T00:16:14.766Z,0.70
2023-03-12T00:18:42.653Z,0.93
2023-03-12T00:21:09.831Z,0.83
2023-03-12T00:23:37.670Z,1.20
2023-03-12T00:26:06.210Z,1.03
2023-03-12T00:28:34.899Z,0.73
2023-03-12T00:31:02.423Z,0.93
2023-03-12T00:33:29.826Z,0.90
2023-03-12T00:35:57.481Z,0.97
2023-03-12T00:38:24.611Z,0.87
2023-03-12T00:40:51.759Z,1.00
2023-03-12T00:43:18.868Z,0.77
2023-03-12T00:45:46.151Z,1.27
2023-03-12T00:48:13.278Z,1.03
2023-03-12T00:50:40.404Z,1.07
2023-03-12T00:53:07.552Z,1.07
2023-03-12T00:55:35.154Z,1.00
2023-03-12T00:58:02.354Z,1.10
2023-03-12T01:00:29.601Z,0.93
2023-03-12T01:02:56.764Z,1.30
2023-03-12T01:05:24.106Z,1.00
2023-03-12T01:07:51.303Z,1.10
2023-03-12T01:10:19.329Z,1.10
2023-03-12T01:12:46.464Z,1.20
2023-03-12T01:15:14.627Z,1.00
2023-03-12T01:17:42.105Z,1.20
2023-03-12T01:20:09.895Z,1.00
2023-03-12T01:22:37.564Z,0.80
2023-03-12T01:25:04.800Z,1.27
2023-03-12T01:27:31.965Z,1.00
2023-03-12T01:29:59.111Z,1.27
2023-03-12T01:32:26.458Z,1.17
2023-03-12T01:34:53.978Z,0.60
2023-03-12T01:37:21.153Z,1.10
2023-03-12T01:39:48.298Z,1.10
2023-03-12T01:42:15.420Z,1.10
2023-03-12T01:44:53.436Z,1.17
2023-03-12T01:47:20.633Z,1.00
2023-03-12T01:49:48.949Z,1.00
2023-03-12T01:52:19.146Z,1.20
2023-03-12T01:54:46.320Z,1.20
2023-03-12T01:57:15.633Z,1.00
2023-03-12T01:59:45.266Z,1.00
2023-03-12T02:02:12.837Z,0.90
2023-03-12T02:04:40.532Z,1.20
2023-03-12T02:07:11.815Z,1.13
2023-03-12T02:09:41.832Z,0.90
2023-03-12T02:12:09.895Z,1.10
2023-03-12T02:14:37.777Z,0.80
2023-03-12T02:17:05.538Z,0.90
2023-03-12T02:19:32.642Z,0.80
2023-03-12T02:22:00.124Z,0.83
2023-03-12T02:24:30.339Z,1.10
2023-03-12T02:26:58.019Z,1.20
2023-03-12T02:29:26.045Z,1.00
2023-03-12T02:31:56.729Z,0.80
2023-03-12T02:34:23.904Z,0.80
2023-03-12T02:36:51.128Z,0.90
2023-03-12T02:39:19.556Z,1.10
2023-03-12T02:41:53.732Z,1.20
2023-03-12T02:44:24.688Z,0.87
2023-03-12T02:46:53.858Z,1.10
2023-03-12T02:49:22.213Z,1.23
2023-03-12T02:51:49.726Z,0.93
2023-03-12T02:54:18.279Z,1.10
2023-03-12T02:56:45.487Z,1.00
2023-03-12T02:59:14.261Z,0.90
2023-03-12T03:01:41.646Z,1.27
2023-03-12T03:04:09.913Z,0.80
2023-03-12T03:06:38.525Z,0.93
2023-03-12T03:09:05.816Z,1.20
2023-03-12T03:11:32.953Z,0.77
2023-03-12T03:14:00.186Z,0.83
2023-03-12T03:16:27.358Z,0.80
2023-03-12T03:18:54.486Z,0.73
2023-03-12T03:21:22.672Z,0.70
2023-03-12T03:23:50.878Z,0.93
2023-03-12T03:26:21.185Z,0.93
2023-03-12T03:28:48.347Z,0.80
2023-03-12T03:31:15.545Z,0.90
2023-03-12T03:33:42.801Z,1.00
2023-03-12T03:36:11.274Z,1.00
2023-03-12T03:38:38.582Z,0.87
2023-03-12T03:41:05.699Z,0.90
2023-03-12T03:43:32.835Z,1.00
2023-03-12T03:45:59.971Z,0.80
2023-03-12T03:48:27.114Z,0.60
2023-03-12T03:50:54.298Z,1.07
2023-03-12T03:53:21.726Z,0.77
2023-03-12T03:55:48.879Z,1.27
2023-03-12T03:58:16.458Z,1.43
2023-03-12T04:00:45.206Z,0.97
2023-03-12T04:03:13.345Z,1.10
2023-03-12T04:05:45.169Z,1.00
2023-03-12T04:08:12.989Z,0.93
2023-03-12T04:10:40.218Z,0.90
2023-03-12T04:13:07.411Z,0.90
2023-03-12T04:15:34.583Z,0.83
2023-03-12T04:18:01.788Z,0.80
2023-03-12T04:20:29.001Z,0.90
2023-03-12T04:22:56.180Z,0.83
2023-03-12T04:25:23.416Z,0.70
2023-03-12T04:27:50.605Z,1.00
2023-03-12T04:30:17.798Z,1.13
2023-03-12T04:32:45.018Z,0.73
2023-03-12T04:35:12.324Z,1.10
2023-03-12T04:37:39.445Z,1.00
2023-03-12T04:40:07.956Z,0.90
2023-03-12T04:42:38.472Z,1.10
2023-03-12T04:45:06.444Z,0.80
2023-03-12T04:47:34.237Z,1.37
2023-03-12T04:50:01.429Z,0.90
2023-03-12T04:52:28.621Z,0.93
2023-03-12T04:54:55.970Z,0.77
2023-03-12T04:57:23.237Z,0.90
2023-03-12T04:59:50.367Z,1.50
2023-03-12T05:02:17.485Z,1.03
2023-03-12T05:04:44.626Z,1.00
2023-03-12T05:07:11.863Z,1.20
2023-03-12T05:09:39.101Z,0.97
2023-03-12T05:12:06.441Z,1.20
2023-03-12T05:14:33.587Z,0.90
2023-03-12T05:17:00.711Z,0.93
2023-03-12T05:19:27.958Z,1.10
2023-03-12T05:21:55.132Z,0.53
2023-03-12T05:24:22.713Z,0.73
2023-03-12T05:26:49.871Z,1.07
2023-03-12T05:29:17.005Z,1.37
2023-03-12T05:31:44.270Z,0.70
2023-03-12T05:34:14.825Z,1.23
2023-03-12T05:36:42.000Z,1.13
2023-03-12T05:39:09.151Z,1.00
2023-03-12T05:41:36.362Z,1.27
2023-03-12T05:44:03.489Z,1.10
2023-03-12T05:46:30.675Z,0.90
2023-03-12T05:48:57.794Z,1.00
2023-03-12T05:51:24.953Z,0.93
2023-03-12T05:53:52.123Z,1.00
2023-03-12T05:56:19.244Z,0.93
2023-03-12T05:58:49.020Z,1.10
2023-03-12T06:01:18.407Z,0.90
2023-03-12T06:03:46.176Z,0.90
2023-03-12T06:06:13.822Z,0.97
2023-03-12T06:08:41.659Z,1.07
2023-03-12T06:11:08.803Z,0.90
2023-03-12T06:13:36.195Z,1.07
2023-03-12T06:16:08.396Z,1.40
2023-03-12T06:18:36.072Z,1.00
2023-03-12T06:21:16.360Z,0.80
2023-03-12T06:23:43.979Z,1.00
2023-03-12T06:26:11.749Z,1.00
2023-03-12T06:28:39.325Z,0.80
2023-03-12T06:31:07.144Z,1.00
2023-03-12T06:33:34.720Z,0.80
2023-03-12T06:36:03.145Z,0.83
2023-03-12T06:38:30.318Z,0.80
2023-03-12T06:41:01.583Z,1.10
2023-03-12T06:43:29.705Z,1.03
2023-03-12T06:45:57.757Z,0.90
2023-03-12T06:48:25.608Z,1.10
2023-03-12T06:50:52.736Z,0.90
2023-03-12T06:53:20.845Z,0.80
2023-03-12T06:55:50.060Z,0.70
2023-03-12T06:58:17.279Z,1.10
2023-03-12T07:00:44.435Z,1.10
2023-03-12T07:03:11.604Z,1.07
2023-03-12T07:05:38.728Z,0.70
2023-03-12T07:08:06.219Z,0.97
2023-03-12T07:10:33.398Z,1.40
2023-03-12T07:13:00.551Z,0.80
2023-03-12T07:15:27.743Z,1.40
2023-03-12T07:17:55.014Z,1.20
2023-03-12T07:20:22.176Z,1.13
2023-03-12T07:22:49.294Z,1.40
2023-03-12T07:25:18.641Z,1.10
2023-03-12T07:27:46.175Z,0.77
2023-03-12T07:30:13.513Z,1.00
2023-03-12T07:32:40.794Z,0.77
2023-03-12T07:35:08.134Z,0.90
2023-03-12T07:37:35.265Z,0.70
2023-03-12T07:40:02.752Z,0.90
2023-03-12T07:42:30.005Z,0.90
2023-03-12T07:44:57.153Z,1.20
2023-03-12T07:47:24.701Z,0.93
2023-03-12T07:49:53.936Z,1.00
2023-03-12T07:52:21.247Z,0.80
2023-03-12T07:54:49.121Z,0.97
2023-03-12T07:57:17.008Z,0.90
2023-03-12T07:59:44.467Z,0.87
2023-03-12T08:02:11.710Z,1.03
2023-03-12T08:04:39.260Z,0.90
2023-03-12T08:07:09.164Z,0.80
2023-03-12T08:09:38.711Z,1.00
2023-03-12T08:12:06.617Z,0.90
2023-03-12T08:14:34.063Z,0.90
2023-03-12T08:17:01.706Z,0.83
2023-03-12T08:19:28.962Z,0.83
2023-03-12T08:21:56.114Z,0.97
2023-03-12T08:24:23.312Z,0.90
2023-03-12T08:26:50.453Z,0.80
2023-03-12T08:29:18.049Z,1.20
2023-03-12T08:32:01.486Z,0.70
2023-03-12T08:34:30.792Z,0.97
2023-03-12T08:36:57.948Z,1.10
2023-03-12T08:39:25.126Z,1.10
2023-03-12T08:41:55.280Z,0.80
2023-03-12T08:44:23.020Z,0.93
2023-03-12T08:46:50.241Z,0.70
2023-03-12T08:49:17.679Z,0.90
2023-03-12T08:51:44.893Z,0.83
2023-03-12T08:54:12.112Z,0.80
2023-03-12T08:56:42.390Z,0.83
2023-03-12T08:59:10.619Z,0.77
2023-03-12T09:01:38.244Z,0.97
2023-03-12T09:04:06.173Z,0.73
2023-03-12T09:06:35.304Z,0.83
2023-03-12T09:09:05.807Z,0.87
2023-03-12T09:11:33.907Z,0.83
2023-03-12T09:14:46.249Z,0.90
2023-03-12T09:16:49.346Z,0.83
2023-03-12T09:19:16.794Z,0.67
2023-03-12T09:21:43.977Z,0.90
2023-03-12T09:24:11.195Z,0.93
2023-03-12T09:26:38.342Z,0.80
2023-03-12T09:29:05.577Z,1.07
2023-03-12T09:31:32.721Z,0.90
2023-03-12T09:33:59.897Z,0.90
2023-03-12T09:36:27.026Z,1.00
2023-03-12T09:38:54.849Z,0.83
2023-03-12T09:41:24.294Z,0.70
2023-03-12T09:43:54.306Z,0.60
2023-03-12T09:46:31.589Z,0.80
2023-03-12T09:48:59.520Z,0.97
2023-03-12T09:51:35.661Z,0.83
2023-03-12T09:54:04.770Z,0.70
2023-03-12T09:56:32.002Z,1.00
2023-03-12T09:58:59.201Z,0.70
2023-03-12T10:01:33.881Z,0.90
2023-03-12T10:04:03.992Z,0.80
2023-03-12T10:06:36.103Z,0.80
2023-03-12T10:09:18.716Z,0.90
2023-03-12T10:11:48.654Z,1.07
2023-03-12T10:14:24.018Z,0.90
2023-03-12T10:17:01.842Z,0.90
2023-03-12T10:19:32.097Z,0.63
2023-03-12T10:21:59.544Z,1.10
2023-03-12T10:24:28.788Z,0.80
2023-03-12T10:26:57.787Z,0.77
2023-03-12T10:29:26.792Z,0.93
2023-03-12T10:32:02.886Z,0.97
2023-03-12T10:34:32.393Z,1.00
2023-03-12T10:37:00.803Z,0.80
2023-03-12T10:39:27.964Z,0.83
2023-03-12T10:41:55.252Z,0.70
2023-03-12T10:44:23.572Z,0.90
2023-03-12T10:47:23.336Z,0.90
2023-03-12T10:49:51.131Z,1.17
2023-03-12T10:52:19.686Z,1.00
2023-03-12T10:54:48.379Z,0.80
2023-03-12T10:57:16.199Z,0.70
2023-03-12T10:59:44.633Z,1.00
2023-03-12T11:02:30.381Z,0.90
2023-03-12T11:04:58.560Z,0.73
2023-03-12T11:07:28.530Z,0.80
2023-03-12T11:10:25.071Z,0.80
2023-03-12T11:13:00.256Z,1.30
2023-03-12T11:15:36.620Z,1.10
2023-03-12T11:18:22.329Z,0.70
2023-03-12T11:20:52.943Z,0.70
2023-03-12T11:23:25.138Z,0.67
2023-03-12T11:25:57.602Z,0.83
2023-03-12T11:28:26.511Z,0.80
2023-03-12T11:30:54.388Z,0.80
2023-03-12T11:33:21.604Z,0.87
2023-03-12T11:36:08.630Z,1.00
2023-03-12T11:38:39.270Z,0.93
2023-03-12T11:41:18.415Z,0.70
2023-03-12T11:44:03.640Z,0.83
2023-03-12T11:46:53.894Z,1.10
2023-03-12T11:49:41.305Z,0.97
2023-03-12T11:52:16.855Z,0.87
2023-03-12T11:54:55.656Z,0.80
2023-03-12T11:57:41.458Z,1.00
2023-03-12T12:00:14.580Z,0.73
2023-03-12T12:02:41.720Z,0.97
2023-03-12T12:05:08.828Z,0.90
2023-03-12T12:07:54.453Z,1.27
2023-03-12T12:10:36.605Z,0.87
2023-03-12T12:13:22.592Z,1.00
2023-03-12T12:16:08.643Z,0.83
2023-03-12T12:18:45.607Z,0.80
2023-03-12T12:21:31.522Z,0.77
2023-03-12T12:24:04.810Z,0.73
2023-03-12T12:27:04.988Z,0.80
2023-03-12T12:29:33.331Z,1.00
2023-03-12T12:32:02.967Z,1.13
2023-03-12T12:34:30.163Z,1.07
2023-03-12T12:37:06.500Z,0.97
2023-03-12T12:39:35.874Z,1.00
2023-03-12T12:42:04.709Z,0.90
2023-03-12T12:44:37.246Z,0.97
2023-03-12T12:47:05.709Z,0.87
2023-03-12T12:49:41.911Z,0.90
2023-03-12T12:52:12.147Z,1.13
2023-03-12T12:54:45.653Z,1.20
2023-03-12T12:57:22.084Z,0.73
2023-03-12T13:00:04.871Z,0.97
2023-03-12T13:02:34.000Z,0.90
2023-03-12T13:05:01.759Z,0.80
2023-03-12T13:07:30.023Z,1.17
2023-03-12T13:10:00.451Z,0.70
2023-03-12T13:12:30.771Z,0.80
2023-03-12T13:14:58.474Z,0.90
2023-03-12T13:17:26.920Z,0.87
2023-03-12T13:20:01.407Z,0.97
2023-03-12T13:22:41.731Z,1.00
2023-03-12T13:25:27.335Z,1.00
2023-03-12T13:28:01.811Z,1.00
2023-03-12T13:30:34.942Z,1.00
2023-03-12T13:33:02.042Z,0.63
2023-03-12T13:35:33.863Z,0.97
2023-03-12T13:38:02.860Z,0.73
2023-03-12T13:40:29.963Z,0.90
2023-03-12T13:43:09.173Z,0.83
2023-03-12T13:45:48.553Z,1.13
2023-03-12T13:48:16.977Z,1.10
2023-03-12T13:50:52.040Z,0.77
2023-03-12T13:53:26.674Z,0.87
2023-03-12T13:56:02.063Z,1.00
2023-03-12T13:58:29.396Z,1.00
2023-03-12T14:01:04.434Z,1.00
2023-03-12T14:03:40.457Z,0.93
2023-03-12T14:06:14.324Z,0.93
2023-03-12T14:08:44.327Z,1.00
2023-03-12T14:11:30.240Z,1.03
2023-03-12T14:14:00.523Z,1.10
2023-03-12T14:16:37.460Z,0.87
2023-03-12T14:19:05.668Z,1.00
2023-03-12T14:21:39.962Z,0.97
2023-03-12T14:24:08.534Z,1.00
2023-03-12T14:26:36.911Z,1.40
2023-03-12T14:29:19.495Z,1.30
2023-03-12T14:31:47.495Z,1.10
2023-03-12T14:34:34.647Z,0.90
2023-03-12T14:37:05.853Z,1.07
2023-03-12T14:39:35.718Z,1.00
2023-03-12T14:42:07.867Z,1.00
2023-03-12T14:44:39.726Z,1.40
2023-03-12T14:47:10.164Z,0.93
2023-03-12T14:49:45.151Z,0.93
2023-03-12T14:52:12.990Z,1.00
2023-03-12T14:54:40.178Z,0.83
2023-03-12T14:57:07.521Z,1.03
2023-03-12T14:59:37.646Z,1.17
2023-03-12T15:02:18.863Z,1.03
2023-03-12T15:04:46.884Z,1.20
2023-03-12T15:07:15.436Z,1.40
2023-03-12T15:09:47.522Z,1.20
2023-03-12T15:12:20.743Z,1.20
2023-03-12T15:14:49.216Z,1.60
2023-03-12T15:17:18.396Z,1.20
2023-03-12T15:19:45.680Z,1.07
2023-03-12T15:22:17.713Z,1.47
2023-03-12T15:24:44.895Z,1.20
2023-03-12T15:27:23.263Z,1.50
2023-03-12T15:29:50.421Z,1.40
2023-03-12T15:32:20.801Z,1.40
2023-03-12T15:34:48.251Z,1.20
2023-03-12T15:37:33.918Z,1.30
2023-03-12T15:40:04.627Z,1.30
2023-03-12T15:42:37.113Z,1.00
2023-03-12T15:45:04.413Z,1.10
2023-03-12T15:47:33.487Z,1.33
2023-03-12T15:50:04.527Z,1.37
2023-03-12T15:52:33.871Z,1.50
2023-03-12T15:55:06.350Z,1.50
2023-03-12T15:57:53.790Z,1.20
2023-03-12T16:00:23.004Z,1.37
2023-03-12T16:02:54.657Z,1.10
2023-03-12T16:05:23.383Z,1.50
2023-03-12T16:07:50.788Z,1.23
2023-03-12T16:10:19.711Z,1.10
2023-03-12T16:12:47.521Z,1.20
2023-03-12T16:15:16.121Z,1.10
2023-03-12T16:17:43.500Z,1.20
2023-03-12T16:20:12.622Z,1.20
2023-03-12T16:22:39.863Z,1.40
2023-03-12T16:25:07.445Z,1.43
2023-03-12T16:27:39.141Z,1.50
2023-03-12T16:30:18.632Z,1.10
2023-03-12T16:32:46.089Z,1.30
2023-03-12T16:35:14.548Z,1.63
2023-03-12T16:37:41.733Z,1.40
2023-03-12T16:40:09.456Z,1.53
2023-03-12T16:42:36.870Z,1.40
2023-03-12T16:45:04.208Z,1.20
2023-03-12T16:47:31.622Z,1.57
2023-03-12T16:49:58.858Z,1.63
2023-03-12T16:52:30.914Z,1.63
2023-03-12T16:54:58.290Z,1.40
2023-03-12T16:57:31.532Z,1.30
2023-03-12T16:59:58.744Z,1.70
2023-03-12T17:02:26.030Z,1.60
2023-03-12T17:04:53.417Z,1.60
2023-03-12T17:07:20.533Z,1.60
2023-03-12T17:09:47.661Z,1.63
2023-03-12T17:12:31.598Z,1.80
2023-03-12T17:14:59.647Z,1.53
2023-03-12T17:17:27.063Z,1.40
2023-03-12T17:19:54.263Z,1.57
2023-03-12T17:22:21.773Z,1.83
2023-03-12T17:24:48.973Z,1.50
2023-03-12T17:27:16.117Z,1.80
2023-03-12T17:29:43.338Z,1.57
2023-03-12T17:32:10.970Z,1.70
2023-03-12T17:34:38.110Z,2.03
2023-03-12T17:37:05.441Z,1.70
2023-03-12T17:39:32.583Z,1.97
2023-03-12T17:41:59.747Z,1.80
2023-03-12T17:44:32.637Z,1.80
2023-03-12T17:47:00.121Z,1.93
2023-03-12T17:49:27.771Z,2.00
2023-03-12T17:51:55.192Z,2.20
2023-03-12T17:54:22.574Z,2.17
2023-03-12T17:56:49.812Z,1.90
2023-03-12T17:59:17.023Z,1.70
2023-03-12T18:01:44.195Z,2.30
2023-03-12T18:04:11.355Z,2.00
2023-03-12T18:06:38.528Z,1.90
2023-03-12T18:09:05.665Z,1.80
2023-03-12T18:11:32.794Z,2.17
2023-03-12T18:13:59.949Z,2.53
2023-03-12T18:16:27.122Z,2.37
2023-03-12T18:18:54.314Z,1.83
2023-03-12T18:21:21.498Z,1.53
2023-03-12T18:23:48.697Z,1.77
2023-03-12T18:26:15.837Z,1.70
2023-03-12T18:28:42.977Z,1.73
2023-03-12T18:31:10.325Z,2.03
2023-03-12T18:33:38.046Z,1.70
2023-03-12T18:36:05.437Z,1.73
2023-03-12T18:38:33.130Z,1.83
2023-03-12T18:41:04.950Z,1.87
2023-03-12T18:43:35.656Z,1.60
2023-03-12T18:46:02.862Z,1.70
2023-03-12T18:48:29.995Z,1.50
2023-03-12T18:50:57.162Z,1.40
2023-03-12T18:53:24.395Z,1.57
2023-03-12T18:55:52.848Z,1.57
2023-03-12T18:58:20.070Z,1.57
2023-03-12T19:00:47.210Z,1.40
2023-03-12T19:03:14.372Z,1.60
2023-03-12T19:05:41.503Z,1.50
2023-03-12T19:08:08.740Z,1.63
2023-03-12T19:10:35.852Z,1.50
2023-03-12T19:13:02.981Z,1.50
2023-03-12T19:15:30.354Z,1.60
2023-03-12T19:17:58.323Z,1.80
2023-03-12T19:20:25.476Z,1.70
2023-03-12T19:22:52.663Z,1.40
2023-03-12T19:25:20.374Z,1.50
2023-03-12T19:27:47.606Z,1.50
2023-03-12T19:30:14.919Z,1.40
2023-03-12T19:32:44.270Z,1.70
2023-03-12T19:35:12.876Z,1.97
2023-03-12T19:37:40.258Z,1.50
2023-03-12T19:40:08.085Z,1.50
2023-03-12T19:42:35.253Z,1.60
2023-03-12T19:45:02.459Z,1.80
2023-03-12T19:47:33.028Z,1.50
2023-03-12T19:50:00.689Z,1.30
2023-03-12T19:52:27.914Z,1.60
2023-03-12T19:55:04.176Z,1.70
2023-03-12T19:57:32.467Z,1.70
2023-03-12T19:59:59.929Z,1.70
2023-03-12T20:02:27.495Z,1.40
2023-03-12T20:04:55.412Z,1.40
2023-03-12T20:07:22.728Z,1.30
2023-03-12T20:09:50.029Z,1.50
2023-03-12T20:12:17.261Z,1.50
2023-03-12T20:14:44.407Z,1.60
2023-03-12T20:17:12.264Z,1.40
2023-03-12T20:19:39.633Z,1.30
2023-03-12T20:22:07.559Z,1.60
2023-03-12T20:24:34.756Z,1.50
2023-03-12T20:27:02.021Z,1.33
2023-03-12T20:29:29.315Z,1.37
2023-03-12T20:31:56.512Z,1.60
2023-03-12T20:34:23.954Z,1.60
2023-03-12T20:36:51.106Z,1.43
2023-03-12T20:39:18.264Z,1.50
2023-03-12T20:41:45.404Z,1.40
2023-03-12T20:44:12.531Z,1.30
2023-03-12T20:46:39.690Z,1.80
2023-03-12T20:49:06.886Z,1.57
2023-03-12T20:51:34.070Z,1.50
2023-03-12T20:54:01.200Z,1.67
2023-03-12T20:56:28.366Z,1.40
2023-03-12T20:58:55.661Z,1.50
2023-03-12T21:01:22.822Z,1.37
2023-03-12T21:03:49.965Z,1.50
2023-03-12T21:06:17.134Z,1.50
2023-03-12T21:08:44.288Z,1.13
2023-03-12T21:11:11.581Z,1.40
2023-03-12T21:13:38.719Z,1.73
2023-03-12T21:16:06.904Z,1.30
2023-03-12T21:18:34.271Z,1.43
2023-03-12T21:21:05.151Z,1.50
2023-03-12T21:23:32.916Z,1.80
2023-03-12T21:26:01.040Z,1.50
2023-03-12T21:28:28.894Z,1.40
2023-03-12T21:30:56.430Z,1.27
2023-03-12T21:33:24.069Z,1.60
2023-03-12T21:35:51.289Z,1.53
2023-03-12T21:38:18.478Z,1.50
2023-03-12T21:40:45.601Z,1.50
2023-03-12T21:43:12.699Z,1.40
2023-03-12T21:45:41.765Z,1.60
2023-03-12T21:48:08.940Z,1.23
2023-03-12T21:50:36.075Z,1.80
2023-03-12T21:53:06.874Z,1.57
2023-03-12T21:55:41.619Z,1.70
2023-03-12T21:58:08.735Z,1.70
2023-03-12T22:00:35.898Z,1.70
2023-03-12T22:03:03.062Z,1.57
2023-03-12T22:05:30.184Z,1.60
2023-03-12T22:07:57.368Z,1.80
2023-03-12T22:10:24.513Z,1.70
2023-03-12T22:12:51.678Z,1.70
2023-03-12T22:15:18.894Z,1.77
2023-03-12T22:17:46.011Z,2.00
2023-03-12T22:20:13.290Z,1.73
2023-03-12T22:22:40.428Z,1.67
2023-03-12T22:25:07.730Z,1.60
2023-03-12T22:27:34.920Z,1.50
2023-03-12T22:30:02.089Z,1.80
2023-03-12T22:32:29.439Z,1.93
2023-03-12T22:34:56.620Z,1.90
2023-03-12T22:37:23.822Z,1.70
2023-03-12T22:39:51.804Z,1.90
2023-03-12T22:42:18.911Z,1.83
2023-03-12T22:44:46.054Z,1.87
2023-03-12T22:47:13.204Z,1.90
2023-03-12T22:49:40.372Z,1.73
2023-03-12T22:52:07.585Z,2.33
2023-03-12T22:54:34.752Z,1.80
2023-03-12T22:57:01.885Z,2.00
2023-03-12T22:59:29.065Z,2.00
2023-03-12T23:01:56.278Z,2.17
2023-03-12T23:04:23.458Z,2.17
2023-03-12T23:06:50.613Z,2.40
2023-03-12T23:09:17.861Z,2.20
2023-03-12T23:11:45.034Z,2.27
2023-03-12T23:14:12.224Z,2.33
2023-03-12T23:16:39.369Z,2.33
2023-03-12T23:19:06.898Z,2.23
2023-03-12T23:21:34.025Z,2.27
2023-03-12T23:24:01.212Z,2.20
2023-03-12T23:26:29.019Z,2.17
2023-03-12T23:28:57.024Z,2.10
2023-03-12T23:31:24.684Z,2.13
2023-03-12T23:33:51.921Z,2.13
2023-03-12T23:36:20.106Z,2.33
2023-03-12T23:38:47.763Z,1.97
2023-03-12T23:41:22.675Z,1.87
2023-03-12T23:43:50.165Z,2.20
2023-03-12T23:46:17.751Z,2.20
2023-03-12T23:48:48.348Z,2.00
2023-03-12T23:51:16.629Z,2.07
2023-03-12T23:53:44.787Z,2.00
2023-03-12T23:56:13.143Z,2.10
2023-03-12T23:58:40.377Z,2.10
